Time;durP1;ratioP1;P1;durP2;ratioP2;P2;SDS_P1;SDS_P2;PMS_P1;PMS_P2;Temp;Humidity;BMP_temperature;BMP_pressure;BME280_temperature;BME280_humidity;BME280_pressure;Samples;Min_cycle;Max_cycle;Signal;HPM_P1;HPM_P2
2023/08/20 00:00:16;;;;;;;9.30;3.25;;;14.80;99.90;;;;;;5046351;28;20045;-64
2023/08/20 00:02:42;;;;;;;8.32;3.00;;;14.70;99.90;;;;;;5042182;28;20087;-64
2023/08/20 00:05:09;;;;;;;8.30;3.33;;;14.70;99.90;;;;;;5030373;28;20041;-64
2023/08/20 00:07:35;;;;;;;5.45;2.90;;;14.70;99.90;;;;;;5032128;28;20077;-64
2023/08/20 00:10:02;;;;;;;8.07;3.05;;;14.70;99.90;;;;;;5041700;28;20087;-64
2023/08/20 00:12:28;;;;;;;6.43;2.85;;;14.70;99.90;;;;;;5041427;28;20076;-64
2023/08/20 00:15:04;;;;;;;5.15;2.22;;;14.70;99.90;;;;;;5033555;28;20143;-64
2023/08/20 00:17:31;;;;;;;7.72;2.65;;;14.60;99.90;;;;;;5029433;28;20044;-64
2023/08/20 00:19:57;;;;;;;8.25;2.75;;;14.50;99.90;;;;;;5030362;28;20049;-64
2023/08/20 00:22:24;;;;;;;4.85;2.10;;;14.50;99.90;;;;;;5032476;28;20041;-64
2023/08/20 00:24:51;;;;;;;5.45;2.50;;;14.50;99.90;;;;;;5043567;28;20037;-64
2023/08/20 00:27:17;;;;;;;5.65;2.60;;;14.40;99.90;;;;;;5030469;28;20048;-64
2023/08/20 00:29:43;;;;;;;7.97;2.65;;;14.40;99.90;;;;;;5032624;28;20041;-65
2023/08/20 00:32:09;;;;;;;5.95;2.30;;;14.30;99.90;;;;;;5036659;28;20044;-64
2023/08/20 00:34:34;;;;;;;3.88;2.60;;;14.30;99.90;;;;;;5045433;28;20047;-64
2023/08/20 00:37:02;;;;;;;4.53;2.55;;;14.30;99.90;;;;;;5037319;28;20415;-65
2023/08/20 00:39:31;;;;;;;5.53;2.72;;;14.40;99.90;;;;;;5038362;28;20106;-64
2023/08/20 00:41:57;;;;;;;4.97;2.67;;;14.30;99.90;;;;;;5036495;28;20091;-64
2023/08/20 00:44:22;;;;;;;6.30;3.15;;;14.30;99.90;;;;;;5034930;28;20358;-64
2023/08/20 00:46:50;;;;;;;9.93;3.30;;;14.30;99.90;;;;;;5046282;28;20032;-67
2023/08/20 00:49:17;;;;;;;6.25;3.35;;;14.30;99.90;;;;;;5040476;28;20125;-64
2023/08/20 00:51:42;;;;;;;7.35;3.65;;;14.30;99.90;;;;;;5037675;28;20091;-64
2023/08/20 00:54:09;;;;;;;5.20;3.40;;;14.30;99.90;;;;;;5039471;28;20046;-65
2023/08/20 00:56:35;;;;;;;7.15;3.40;;;14.30;99.90;;;;;;5035599;28;20039;-64
2023/08/20 00:59:00;;;;;;;8.45;3.85;;;14.30;99.90;;;;;;5032177;28;20037;-64
2023/08/20 01:01:26;;;;;;;5.78;2.78;;;14.20;99.90;;;;;;5041494;28;20099;-64
2023/08/20 01:03:52;;;;;;;8.15;3.42;;;14.20;99.90;;;;;;5055715;28;20393;-65
2023/08/20 01:06:33;;;;;;;10.60;3.75;;;14.20;99.90;;;;;;5016005;28;20132;-64
2023/08/20 01:09:23;;;;;;;9.75;3.25;;;14.20;99.90;;;;;;5038016;28;20052;-64
2023/08/20 01:11:56;;;;;;;8.43;3.30;;;14.20;99.90;;;;;;5037312;28;20110;-64
2023/08/20 01:14:21;;;;;;;7.80;3.28;;;14.20;99.90;;;;;;5037508;28;20144;-64
2023/08/20 01:16:49;;;;;;;8.15;2.83;;;14.20;99.90;;;;;;5048473;28;20036;-64
2023/08/20 01:19:17;;;;;;;6.40;3.33;;;14.10;99.90;;;;;;5048745;28;20136;-66
2023/08/20 01:22:08;;;;;;;9.38;4.30;;;14.10;99.90;;;;;;5043306;28;20037;-64
2023/08/20 01:24:46;;;;;;;8.80;4.65;;;14.10;99.90;;;;;;5030596;28;20050;-64
2023/08/20 01:27:31;;;;;;;8.68;3.72;;;14.10;99.90;;;;;;5029200;28;20033;-64
2023/08/20 01:29:58;;;;;;;6.13;4.47;;;14.20;99.90;;;;;;5038601;28;20033;-64
2023/08/20 01:32:24;;;;;;;8.85;3.28;;;14.10;99.90;;;;;;5038293;28;20361;-64
2023/08/20 01:34:49;;;;;;;10.27;4.03;;;14.10;99.90;;;;;;5022391;28;20044;-64
2023/08/20 01:37:16;;;;;;;7.03;2.80;;;14.10;99.90;;;;;;5042912;28;20025;-64
2023/08/20 01:39:42;;;;;;;5.22;3.10;;;14.00;99.90;;;;;;5039153;28;20095;-65
2023/08/20 01:42:07;;;;;;;7.88;3.60;;;14.00;99.90;;;;;;5026705;28;20041;-64
2023/08/20 01:44:33;;;;;;;9.63;3.50;;;14.00;99.90;;;;;;5034586;28;20037;-64
2023/08/20 01:46:59;;;;;;;6.43;3.25;;;14.00;99.90;;;;;;5028836;28;20048;-64
2023/08/20 01:49:24;;;;;;;6.03;3.10;;;13.90;99.90;;;;;;5037652;28;20052;-64
2023/08/20 01:51:50;;;;;;;6.13;3.00;;;13.90;99.90;;;;;;5045582;28;20041;-64
2023/08/20 01:54:15;;;;;;;9.30;3.38;;;13.90;99.90;;;;;;5026583;28;20052;-64
2023/08/20 01:56:41;;;;;;;4.65;2.85;;;13.90;99.90;;;;;;5034581;28;20029;-64
2023/08/20 01:59:07;;;;;;;7.35;3.08;;;13.90;99.90;;;;;;5040285;28;20495;-64
2023/08/20 02:01:32;;;;;;;4.93;2.67;;;13.90;99.90;;;;;;5040087;28;20522;-64
2023/08/20 02:03:58;;;;;;;7.20;3.28;;;13.80;99.90;;;;;;5034265;28;20331;-64
2023/08/20 02:06:23;;;;;;;6.32;2.97;;;13.80;99.90;;;;;;5039032;28;20116;-64
2023/08/20 02:08:49;;;;;;;8.68;3.53;;;13.80;99.90;;;;;;5035376;28;20042;-64
2023/08/20 02:11:14;;;;;;;7.63;3.85;;;13.90;99.90;;;;;;5035814;28;21027;-65
2023/08/20 02:13:40;;;;;;;3.38;2.60;;;14.00;99.90;;;;;;5042427;28;20460;-64
2023/08/20 02:16:06;;;;;;;5.05;3.00;;;13.90;99.90;;;;;;5029704;28;20049;-64
2023/08/20 02:18:32;;;;;;;4.22;2.58;;;13.90;99.90;;;;;;5027906;28;20045;-64
2023/08/20 02:20:58;;;;;;;4.22;2.75;;;13.90;99.90;;;;;;5029483;28;20575;-64
2023/08/20 02:23:23;;;;;;;5.65;3.25;;;13.90;99.90;;;;;;5043281;28;20099;-65
2023/08/20 02:25:49;;;;;;;7.32;3.13;;;13.90;99.90;;;;;;5033911;28;20041;-64
2023/08/20 02:28:15;;;;;;;7.75;3.40;;;13.80;99.90;;;;;;5034761;28;20567;-64
2023/08/20 02:30:45;;;;;;;5.20;3.00;;;13.80;99.90;;;;;;5034204;28;20072;-64
2023/08/20 02:33:11;;;;;;;7.45;3.15;;;13.70;99.90;;;;;;5044406;28;20049;-64
2023/08/20 02:35:40;;;;;;;4.50;2.90;;;13.70;99.90;;;;;;5036026;28;20079;-64
2023/08/20 02:38:06;;;;;;;6.13;3.10;;;13.70;99.90;;;;;;5042916;28;20125;-64
2023/08/20 02:40:32;;;;;;;3.38;2.92;;;13.70;99.90;;;;;;5034907;28;20037;-64
2023/08/20 02:42:58;;;;;;;7.00;3.60;;;13.60;99.90;;;;;;5033658;28;20053;-64
2023/08/20 02:45:24;;;;;;;7.22;3.80;;;13.60;99.90;;;;;;5033723;28;20369;-64
2023/08/20 02:47:49;;;;;;;8.90;4.50;;;13.50;99.90;;;;;;5036302;28;20090;-64
2023/08/20 02:50:15;;;;;;;10.48;5.47;;;13.60;99.90;;;;;;5029967;28;20466;-64
2023/08/20 02:52:44;;;;;;;8.68;5.85;;;13.60;99.90;;;;;;5048432;28;20111;-64
2023/08/20 02:55:10;;;;;;;10.43;5.45;;;13.60;99.90;;;;;;5034177;28;20056;-64
2023/08/20 02:57:36;;;;;;;12.23;5.60;;;13.60;99.90;;;;;;5036925;28;20481;-64
2023/08/20 03:00:02;;;;;;;9.20;5.10;;;13.60;99.90;;;;;;5040415;28;20052;-64
2023/08/20 03:02:28;;;;;;;9.82;4.53;;;13.60;99.90;;;;;;5033953;28;20137;-64
2023/08/20 03:04:55;;;;;;;8.82;4.47;;;13.60;99.90;;;;;;5042714;28;20131;-64
2023/08/20 03:07:22;;;;;;;10.38;5.10;;;13.60;99.90;;;;;;5042107;28;20450;-64
2023/08/20 03:09:48;;;;;;;7.78;4.93;;;13.60;99.90;;;;;;5051329;28;20041;-64
2023/08/20 03:12:13;;;;;;;9.13;5.15;;;13.60;99.90;;;;;;5039452;28;20067;-64
2023/08/20 03:14:39;;;;;;;7.35;4.70;;;13.50;99.90;;;;;;5038108;28;20427;-64
2023/08/20 03:17:05;;;;;;;7.22;4.75;;;13.50;99.90;;;;;;5047693;28;20040;-64
2023/08/20 03:19:33;;;;;;;10.13;6.18;;;13.50;99.90;;;;;;5039379;28;20087;-64
2023/08/20 03:21:59;;;;;;;12.15;6.25;;;13.50;99.90;;;;;;5036504;28;20114;-64
2023/08/20 03:24:24;;;;;;;11.27;5.60;;;13.60;99.90;;;;;;5041588;28;20079;-64
2023/08/20 03:26:50;;;;;;;10.20;4.85;;;13.70;99.90;;;;;;5046128;28;20511;-64
2023/08/20 03:29:16;;;;;;;9.10;5.10;;;13.60;99.90;;;;;;5043001;28;20125;-64
2023/08/20 03:31:41;;;;;;;11.27;5.85;;;13.50;99.90;;;;;;5038488;28;20038;-64
2023/08/20 03:34:09;;;;;;;9.85;5.97;;;13.40;99.90;;;;;;5045617;28;20048;-64
2023/08/20 03:36:35;;;;;;;19.67;6.55;;;13.40;99.90;;;;;;5045780;28;20033;-64
2023/08/20 03:39:00;;;;;;;11.15;6.70;;;13.40;99.90;;;;;;5046302;28;20040;-64
2023/08/20 03:41:26;;;;;;;10.93;6.90;;;13.50;99.90;;;;;;5042995;28;20052;-64
2023/08/20 03:43:51;;;;;;;13.90;5.93;;;13.50;99.90;;;;;;5035923;28;20041;-64
2023/08/20 03:46:17;;;;;;;13.98;7.68;;;13.60;99.90;;;;;;5037486;28;20042;-64
2023/08/20 03:48:43;;;;;;;9.90;6.35;;;13.60;99.90;;;;;;5050934;28;20434;-64
2023/08/20 03:51:08;;;;;;;13.30;7.32;;;13.60;99.90;;;;;;5043518;28;20062;-64
2023/08/20 03:53:34;;;;;;;12.48;6.70;;;13.60;99.90;;;;;;5038993;28;20067;-64
2023/08/20 03:55:59;;;;;;;10.45;6.88;;;13.60;99.90;;;;;;5037121;28;20057;-64
2023/08/20 03:58:25;;;;;;;14.32;7.15;;;13.70;99.90;;;;;;5049641;28;20048;-64
2023/08/20 04:00:51;;;;;;;14.40;7.63;;;13.70;99.90;;;;;;5043365;28;20049;-64
2023/08/20 04:03:19;;;;;;;10.68;6.78;;;13.70;99.90;;;;;;5040140;28;20445;-64
2023/08/20 04:05:45;;;;;;;12.43;6.72;;;13.70;99.90;;;;;;5036447;28;20552;-64
2023/08/20 04:08:10;;;;;;;12.65;7.47;;;13.70;99.90;;;;;;5037540;28;20204;-64
2023/08/20 04:10:42;;;;;;;14.85;8.05;;;13.80;99.90;;;;;;5045838;28;20033;-64
2023/08/20 04:13:08;;;;;;;13.60;7.82;;;13.80;99.90;;;;;;5037144;28;20727;-64
2023/08/20 04:15:33;;;;;;;12.13;7.30;;;13.80;99.90;;;;;;5042397;28;20037;-64
2023/08/20 04:17:59;;;;;;;14.30;6.75;;;13.80;99.90;;;;;;5035267;28;20071;-64
2023/08/20 04:20:25;;;;;;;14.95;7.32;;;13.80;99.90;;;;;;5041974;28;20525;-63
2023/08/20 04:22:50;;;;;;;16.38;7.35;;;13.80;99.90;;;;;;5030819;28;20071;-64
2023/08/20 04:25:16;;;;;;;15.25;8.30;;;13.80;99.90;;;;;;5033147;28;20401;-64
2023/08/20 04:27:41;;;;;;;18.27;8.23;;;13.80;99.90;;;;;;5043635;28;20128;-64
2023/08/20 04:30:07;;;;;;;16.67;8.68;;;13.80;99.90;;;;;;5044603;28;20421;-64
2023/08/20 04:32:33;;;;;;;12.65;8.10;;;13.80;99.90;;;;;;5041514;28;20437;-64
2023/08/20 04:34:59;;;;;;;18.75;10.45;;;13.90;99.90;;;;;;5043880;28;20079;-64
2023/08/20 04:37:25;;;;;;;17.02;8.77;;;13.90;99.90;;;;;;5048997;28;20048;-64
2023/08/20 04:39:50;;;;;;;12.20;6.88;;;14.00;99.90;;;;;;5038954;28;20466;-64
2023/08/20 04:42:16;;;;;;;11.50;5.90;;;14.00;99.90;;;;;;5048576;28;20098;-64
2023/08/20 04:44:41;;;;;;;10.82;5.88;;;14.00;99.90;;;;;;5048949;28;20353;-64
2023/08/20 04:47:11;;;;;;;12.55;6.38;;;14.00;99.90;;;;;;5044392;28;20039;-64
2023/08/20 04:49:37;;;;;;;13.55;6.03;;;13.90;99.90;;;;;;5021962;28;20041;-64
2023/08/20 04:52:02;;;;;;;12.95;6.13;;;13.90;99.90;;;;;;5047068;28;20064;-64
2023/08/20 04:54:28;;;;;;;12.40;6.22;;;13.90;99.90;;;;;;5040555;28;20086;-64
2023/08/20 04:56:53;;;;;;;11.43;5.57;;;14.00;99.90;;;;;;5040331;28;20053;-64
2023/08/20 04:59:19;;;;;;;8.13;5.00;;;14.00;99.90;;;;;;5031904;28;20040;-64
2023/08/20 05:01:44;;;;;;;8.48;5.28;;;14.00;99.90;;;;;;5038462;28;20148;-64
2023/08/20 05:04:10;;;;;;;7.45;5.22;;;13.90;99.90;;;;;;5029373;28;20470;-64
2023/08/20 05:06:36;;;;;;;11.45;5.55;;;13.90;99.90;;;;;;5032148;28;20037;-64
2023/08/20 05:09:01;;;;;;;9.30;6.05;;;13.90;99.90;;;;;;5047954;28;20409;-64
2023/08/20 05:11:28;;;;;;;9.73;5.45;;;14.00;99.90;;;;;;5028717;28;20099;-64
2023/08/20 05:13:55;;;;;;;12.05;7.00;;;14.00;99.90;;;;;;5028841;28;20041;-64
2023/08/20 05:16:21;;;;;;;10.35;6.80;;;14.10;99.90;;;;;;5041863;28;20428;-64
2023/08/20 05:18:46;;;;;;;12.63;7.30;;;14.10;99.90;;;;;;5029338;28;20046;-64
2023/08/20 05:21:13;;;;;;;18.73;7.50;;;14.20;99.90;;;;;;5030038;28;20482;-64
2023/08/20 05:23:40;;;;;;;13.88;8.52;;;14.20;99.90;;;;;;5035332;28;20079;-64
2023/08/20 05:26:07;;;;;;;22.13;10.75;;;14.30;99.90;;;;;;5035495;28;20105;-64
2023/08/20 05:28:32;;;;;;;16.20;8.82;;;14.40;99.90;;;;;;5039125;28;20037;-64
2023/08/20 05:30:58;;;;;;;18.60;10.45;;;14.50;99.90;;;;;;5034049;28;20382;-64
2023/08/20 05:33:24;;;;;;;19.58;11.65;;;14.60;99.90;;;;;;5027603;28;20029;-64
2023/08/20 05:35:50;;;;;;;21.75;12.50;;;14.80;99.90;;;;;;5029200;28;20071;-64
2023/08/20 05:38:16;;;;;;;21.10;11.77;;;14.90;99.90;;;;;;5043409;28;20144;-64
2023/08/20 05:40:42;;;;;;;20.05;10.68;;;15.00;99.90;;;;;;5036917;28;20037;-64
2023/08/20 05:43:08;;;;;;;30.90;13.90;;;15.10;99.90;;;;;;5038554;28;20678;-64
2023/08/20 05:45:34;;;;;;;20.98;12.20;;;15.20;99.90;;;;;;5029316;28;20034;-65
2023/08/20 05:47:59;;;;;;;20.80;12.13;;;15.30;99.90;;;;;;5030591;28;20044;-64
2023/08/20 05:50:25;;;;;;;20.20;12.15;;;15.40;99.90;;;;;;5033513;28;20037;-64
2023/08/20 05:52:51;;;;;;;23.10;12.77;;;15.60;99.90;;;;;;5032013;28;20071;-64
2023/08/20 05:55:17;;;;;;;23.70;12.35;;;15.70;99.90;;;;;;5035882;28;20036;-64
2023/08/20 05:57:43;;;;;;;19.55;11.80;;;15.80;99.90;;;;;;5036793;28;20545;-64
2023/08/20 06:00:10;;;;;;;22.13;11.30;;;15.90;99.90;;;;;;5048820;28;20434;-65
2023/08/20 06:02:36;;;;;;;17.90;11.02;;;16.00;99.90;;;;;;5033619;28;20105;-64
2023/08/20 06:05:04;;;;;;;20.10;10.55;;;16.10;99.90;;;;;;5032766;28;20041;-65
2023/08/20 06:07:30;;;;;;;19.08;10.25;;;16.20;99.90;;;;;;5044669;28;20484;-65
2023/08/20 06:09:56;;;;;;;21.00;9.77;;;16.30;99.90;;;;;;5041991;28;20033;-65
2023/08/20 06:12:22;;;;;;;19.27;10.32;;;16.40;99.90;;;;;;5031214;28;20033;-65
2023/08/20 06:14:48;;;;;;;17.23;10.30;;;16.50;99.90;;;;;;5030527;28;20029;-65
2023/08/20 06:17:13;;;;;;;17.85;8.82;;;16.70;99.90;;;;;;5038934;28;20140;-65
2023/08/20 06:19:39;;;;;;;16.67;9.57;;;16.90;99.90;;;;;;5040545;28;20041;-65
2023/08/20 06:22:05;;;;;;;13.25;8.23;;;17.00;99.90;;;;;;5015468;28;20041;-65
2023/08/20 06:24:30;;;;;;;15.30;8.10;;;17.20;99.90;;;;;;5030390;28;20049;-65
2023/08/20 06:26:56;;;;;;;14.90;6.95;;;17.40;99.90;;;;;;5035167;28;20120;-65
2023/08/20 06:29:24;;;;;;;10.10;7.18;;;17.60;99.90;;;;;;5037619;28;20084;-65
2023/08/20 06:31:50;;;;;;;10.00;5.93;;;17.80;99.90;;;;;;5039586;28;20123;-65
2023/08/20 06:34:16;;;;;;;11.52;6.05;;;18.00;99.90;;;;;;5033603;28;20107;-65
2023/08/20 06:36:42;;;;;;;14.63;5.70;;;18.30;99.90;;;;;;5034170;28;20029;-65
2023/08/20 06:39:08;;;;;;;11.20;5.07;;;18.50;99.90;;;;;;5034118;28;20049;-66
2023/08/20 06:41:34;;;;;;;9.50;4.30;;;18.70;99.90;;;;;;5032332;28;20045;-66
2023/08/20 06:44:00;;;;;;;7.75;4.10;;;18.90;99.90;;;;;;5037033;28;20128;-65
2023/08/20 06:46:25;;;;;;;6.22;3.60;;;19.20;99.90;;;;;;5037664;28;20060;-66
2023/08/20 06:48:51;;;;;;;8.32;3.72;;;19.40;99.90;;;;;;5038336;28;20041;-66
2023/08/20 06:51:20;;;;;;;9.65;3.72;;;19.60;99.90;;;;;;5049384;28;20068;-66
2023/08/20 06:53:45;;;;;;;12.90;3.10;;;19.90;99.90;;;;;;5051450;28;20071;-66
2023/08/20 06:56:11;;;;;;;10.40;3.42;;;20.10;99.90;;;;;;5035761;28;20041;-66
2023/08/20 06:58:39;;;;;;;7.60;3.40;;;20.30;99.90;;;;;;5042026;28;20036;-66
2023/08/20 07:01:07;;;;;;;10.55;3.22;;;20.50;99.90;;;;;;5041519;28;20837;-66
2023/08/20 07:03:40;;;;;;;7.40;2.90;;;20.70;99.90;;;;;;5043567;28;20029;-66
2023/08/20 07:06:07;;;;;;;8.63;3.33;;;20.90;99.90;;;;;;5039600;28;20063;-66
2023/08/20 07:08:32;;;;;;;7.05;3.20;;;21.10;99.90;;;;;;5028592;28;20044;-66
2023/08/20 07:10:58;;;;;;;8.45;3.33;;;21.30;99.90;;;;;;5026467;28;20064;-66
2023/08/20 07:13:24;;;;;;;8.02;3.35;;;21.50;99.90;;;;;;5037622;28;20091;-67
2023/08/20 07:15:50;;;;;;;10.70;3.35;;;21.60;99.90;;;;;;5045823;28;20041;-66
2023/08/20 07:18:16;;;;;;;8.55;2.92;;;21.70;99.90;;;;;;5042239;28;20082;-67
2023/08/20 07:20:45;;;;;;;7.38;2.80;;;21.80;99.40;;;;;;5050382;28;20823;-67
2023/08/20 07:23:11;;;;;;;7.70;2.95;;;21.90;97.10;;;;;;5045891;28;20048;-66
2023/08/20 07:25:41;;;;;;;7.82;2.90;;;22.30;97.20;;;;;;5032949;28;20037;-67
2023/08/20 07:28:08;;;;;;;8.60;3.00;;;22.50;94.20;;;;;;5042614;28;20706;-67
2023/08/20 07:30:34;;;;;;;9.80;2.80;;;22.60;93.70;;;;;;5039160;28;20040;-66
2023/08/20 07:32:59;;;;;;;7.00;2.28;;;22.90;93.90;;;;;;5045131;28;20041;-66
2023/08/20 07:35:25;;;;;;;6.63;2.22;;;22.80;93.30;;;;;;5039424;28;20471;-66
2023/08/20 07:37:50;;;;;;;5.38;2.17;;;23.20;91.90;;;;;;5051221;28;20473;-66
2023/08/20 07:40:16;;;;;;;6.70;2.22;;;23.30;91.00;;;;;;5032918;28;20112;-66
2023/08/20 07:42:42;;;;;;;6.78;2.05;;;23.40;90.30;;;;;;5031206;28;20103;-66
2023/08/20 07:45:09;;;;;;;8.30;2.42;;;23.50;89.20;;;;;;5044936;28;20490;-66
2023/08/20 07:47:36;;;;;;;6.85;1.85;;;23.80;88.90;;;;;;5047355;28;20086;-66
2023/08/20 07:50:02;;;;;;;7.22;2.05;;;23.90;87.00;;;;;;5048260;28;20102;-66
2023/08/20 07:52:27;;;;;;;9.43;2.20;;;24.00;85.70;;;;;;5040048;28;20045;-67
2023/08/20 07:54:53;;;;;;;8.15;1.83;;;24.10;84.70;;;;;;5050637;28;20114;-68
2023/08/20 07:57:19;;;;;;;5.57;1.95;;;24.30;82.90;;;;;;5051400;28;20424;-67
2023/08/20 07:59:44;;;;;;;5.15;1.65;;;24.40;81.70;;;;;;5047765;28;20449;-67
2023/08/20 08:02:10;;;;;;;8.05;2.10;;;24.40;80.20;;;;;;5041356;28;20037;-67
2023/08/20 08:04:36;;;;;;;7.75;1.67;;;24.60;79.30;;;;;;5050976;28;20083;-68
2023/08/20 08:07:02;;;;;;;8.48;1.88;;;24.70;78.00;;;;;;5050728;28;20045;-69
2023/08/20 08:09:30;;;;;;;8.73;2.03;;;25.20;76.60;;;;;;5047395;28;20029;-68
2023/08/20 08:11:56;;;;;;;4.45;1.50;;;25.30;74.80;;;;;;5036603;28;20489;-68
2023/08/20 08:14:23;;;;;;;5.38;1.50;;;25.40;74.30;;;;;;5051607;28;20048;-68
2023/08/20 08:16:50;;;;;;;6.65;1.85;;;25.60;73.50;;;;;;5034652;28;20084;-68
2023/08/20 08:19:16;;;;;;;4.57;1.80;;;25.80;72.50;;;;;;5048916;28;20048;-68
2023/08/20 08:21:43;;;;;;;4.38;1.58;;;26.00;71.20;;;;;;5048851;28;20064;-68
2023/08/20 08:24:10;;;;;;;6.05;1.60;;;26.20;70.70;;;;;;5040592;28;20116;-68
2023/08/20 08:26:36;;;;;;;8.57;2.25;;;26.50;69.30;;;;;;5030875;28;20485;-68
2023/08/20 08:29:02;;;;;;;7.45;1.55;;;26.60;68.20;;;;;;5035484;28;20040;-68
2023/08/20 08:31:28;;;;;;;5.07;1.70;;;26.80;66.80;;;;;;5032158;28;20034;-70
2023/08/20 08:33:54;;;;;;;5.90;1.50;;;27.00;66.70;;;;;;5049742;28;20480;-69
2023/08/20 08:36:19;;;;;;;4.80;1.40;;;27.20;65.80;;;;;;5048735;28;20441;-69
2023/08/20 08:38:45;;;;;;;5.72;1.58;;;27.10;65.50;;;;;;5046745;28;20041;-69
2023/08/20 08:41:12;;;;;;;4.28;1.40;;;27.40;64.30;;;;;;5048218;28;20048;-69
2023/08/20 08:43:39;;;;;;;7.38;1.83;;;27.70;62.90;;;;;;5050283;28;20408;-68
2023/08/20 08:46:15;;;;;;;7.85;1.98;;;28.10;61.90;;;;;;5039382;28;20061;-69
2023/08/20 08:48:42;;;;;;;6.45;1.40;;;28.30;58.90;;;;;;5029901;28;20045;-70
2023/08/20 08:51:08;;;;;;;5.10;1.05;;;28.30;59.30;;;;;;5044237;28;20247;-69
2023/08/20 08:53:35;;;;;;;8.23;1.60;;;28.30;58.00;;;;;;5036312;28;20033;-69
2023/08/20 08:56:02;;;;;;;1.90;1.00;;;28.50;56.90;;;;;;5044019;28;20048;-68
2023/08/20 08:58:28;;;;;;;4.13;1.10;;;28.50;56.30;;;;;;5034941;28;20044;-69
2023/08/20 09:00:53;;;;;;;3.35;1.08;;;29.00;56.00;;;;;;5030031;28;20477;-69
2023/08/20 09:03:19;;;;;;;3.95;1.08;;;29.10;55.10;;;;;;5030383;28;20073;-70
2023/08/20 09:05:56;;;;;;;4.75;1.02;;;28.80;54.30;;;;;;5029329;28;20045;-69
2023/08/20 09:08:26;;;;;;;3.95;1.00;;;28.50;50.10;;;;;;5031731;28;20045;-70
2023/08/20 09:10:54;;;;;;;5.80;1.00;;;28.70;53.50;;;;;;5045269;28;20041;-68
2023/08/20 09:13:43;;;;;;;5.63;1.25;;;28.90;51.60;;;;;;5049808;28;20037;-69
2023/08/20 09:16:11;;;;;;;3.65;1.30;;;29.00;51.40;;;;;;5045176;28;20072;-70
2023/08/20 09:18:40;;;;;;;3.10;0.85;;;28.90;53.20;;;;;;5029091;28;20129;-69
2023/08/20 09:21:10;;;;;;;4.95;1.17;;;29.00;51.40;;;;;;5030621;28;20672;-69
2023/08/20 09:23:36;;;;;;;2.80;0.90;;;28.70;52.20;;;;;;5029071;28;20072;-70
2023/08/20 09:26:04;;;;;;;3.45;1.20;;;28.20;53.10;;;;;;5029534;28;20118;-68
2023/08/20 09:28:44;;;;;;;4.65;1.40;;;27.80;54.10;;;;;;5043919;28;20041;-69
2023/08/20 09:31:11;;;;;;;4.60;1.25;;;27.30;54.30;;;;;;5038375;28;20469;-68
2023/08/20 09:33:36;;;;;;;4.70;1.30;;;27.00;55.80;;;;;;5046890;28;20067;-69
2023/08/20 09:36:07;;;;;;;3.92;1.08;;;27.00;55.30;;;;;;5047791;28;20421;-69
2023/08/20 09:38:40;;;;;;;3.33;1.05;;;27.20;54.10;;;;;;5042817;28;20041;-68
2023/08/20 09:41:08;;;;;;;4.00;1.05;;;27.50;53.10;;;;;;5029210;28;20041;-69
2023/08/20 09:43:38;;;;;;;4.75;1.05;;;28.00;52.20;;;;;;5033531;28;20117;-70
2023/08/20 09:46:05;;;;;;;3.95;0.85;;;28.10;51.50;;;;;;5028102;28;20033;-69
2023/08/20 09:48:35;;;;;;;3.15;1.00;;;28.00;51.20;;;;;;5030083;28;20037;-69
2023/08/20 09:51:05;;;;;;;3.95;1.08;;;27.90;50.50;;;;;;5045239;28;20057;-69
2023/08/20 09:53:36;;;;;;;5.53;1.15;;;27.80;51.60;;;;;;5038230;28;20060;-68
2023/08/20 09:56:24;;;;;;;4.32;1.08;;;27.90;52.70;;;;;;5028892;28;20120;-69
2023/08/20 09:58:50;;;;;;;3.20;1.00;;;27.50;52.50;;;;;;5038640;28;20053;-68
2023/08/20 10:01:16;;;;;;;8.30;1.10;;;27.10;54.20;;;;;;5037596;28;20135;-69
2023/08/20 10:03:43;;;;;;;4.25;1.13;;;27.10;55.00;;;;;;5043929;28;20572;-68
2023/08/20 10:06:11;;;;;;;4.97;1.00;;;27.20;54.80;;;;;;5041814;28;20048;-68
2023/08/20 10:08:38;;;;;;;5.85;0.90;;;27.50;54.80;;;;;;5045189;28;20516;-69
2023/08/20 10:11:03;;;;;;;4.95;1.30;;;27.60;54.00;;;;;;5045191;28;20073;-68
2023/08/20 10:13:29;;;;;;;4.00;0.95;;;27.90;53.40;;;;;;5049571;28;20530;-68
2023/08/20 10:15:55;;;;;;;4.88;1.20;;;28.30;52.90;;;;;;5046484;28;20063;-68
2023/08/20 10:18:22;;;;;;;3.90;0.88;;;28.40;52.50;;;;;;5044893;28;20066;-68
2023/08/20 10:20:50;;;;;;;2.47;0.80;;;28.20;52.90;;;;;;5044540;28;20078;-69
2023/08/20 10:23:20;;;;;;;4.93;1.17;;;27.90;52.40;;;;;;5038722;28;20649;-68
2023/08/20 10:25:46;;;;;;;3.55;0.73;;;27.20;54.20;;;;;;5043445;28;20543;-68
2023/08/20 10:28:24;;;;;;;3.50;1.10;;;27.10;54.40;;;;;;5035770;28;20079;-68
2023/08/20 10:31:09;;;;;;;2.65;1.00;;;26.50;54.10;;;;;;5025571;28;20111;-68
2023/08/20 10:33:54;;;;;;;5.28;1.48;;;26.20;54.60;;;;;;5041864;28;20148;-67
2023/08/20 10:36:30;;;;;;;3.72;1.00;;;26.00;55.90;;;;;;5035891;28;20033;-68
2023/08/20 10:38:57;;;;;;;2.15;0.80;;;25.90;56.30;;;;;;5027967;28;20045;-67
2023/08/20 10:41:28;;;;;;;5.78;1.00;;;26.10;56.50;;;;;;5047252;28;20121;-66
2023/08/20 10:43:58;;;;;;;4.10;1.20;;;26.20;57.00;;;;;;5047376;28;20044;-68
2023/08/20 10:46:25;;;;;;;3.53;1.08;;;25.90;57.50;;;;;;5031011;28;20111;-68
2023/08/20 10:48:58;;;;;;;4.00;1.20;;;25.70;57.50;;;;;;5048267;28;20388;-68
2023/08/20 10:51:25;;;;;;;4.20;1.05;;;25.70;57.60;;;;;;5029286;28;20057;-67
2023/08/20 10:54:09;;;;;;;3.33;1.02;;;25.80;57.70;;;;;;5041512;28;20050;-67
2023/08/20 10:57:00;;;;;;;2.95;1.30;;;26.00;57.90;;;;;;5030011;28;20056;-67
2023/08/20 10:59:28;;;;;;;4.00;1.10;;;25.70;58.40;;;;;;5029625;28;20107;-68
2023/08/20 11:01:55;;;;;;;3.05;1.40;;;25.60;58.50;;;;;;5031478;28;20458;-68
2023/08/20 11:04:26;;;;;;;3.65;1.08;;;25.50;59.00;;;;;;5044653;28;20444;-67
2023/08/20 11:06:59;;;;;;;3.20;1.00;;;25.50;58.80;;;;;;5048028;28;20053;-67
2023/08/20 11:09:27;;;;;;;4.75;1.10;;;25.40;58.40;;;;;;5047642;28;20036;-68
2023/08/20 11:11:52;;;;;;;2.58;0.90;;;25.60;58.30;;;;;;5044860;28;20036;-68
2023/08/20 11:14:19;;;;;;;1.95;0.90;;;25.50;57.40;;;;;;5050996;28;20453;-68
2023/08/20 11:16:46;;;;;;;2.20;0.80;;;25.40;56.90;;;;;;5034712;28;20140;-68
2023/08/20 11:19:12;;;;;;;5.45;0.80;;;25.40;56.80;;;;;;5042105;28;20036;-67
2023/08/20 11:21:39;;;;;;;1.77;0.65;;;25.50;56.50;;;;;;5037804;28;20033;-67
2023/08/20 11:24:08;;;;;;;3.85;0.88;;;25.40;55.70;;;;;;5045076;28;20112;-67
2023/08/20 11:26:41;;;;;;;4.83;0.80;;;25.40;56.10;;;;;;5035771;28;20037;-67
2023/08/20 11:29:09;;;;;;;2.90;1.05;;;25.30;56.50;;;;;;5041968;28;20045;-68
2023/08/20 11:31:36;;;;;;;5.20;1.00;;;25.30;56.40;;;;;;5041017;28;20551;-67
2023/08/20 11:34:02;;;;;;;3.08;1.20;;;25.50;57.00;;;;;;5042526;28;20060;-67
2023/08/20 11:36:28;;;;;;;4.50;1.08;;;25.60;57.50;;;;;;5013735;28;20045;-67
2023/08/20 11:38:54;;;;;;;3.35;0.90;;;25.70;58.00;;;;;;5043845;28;20365;-67
2023/08/20 11:41:21;;;;;;;4.47;0.90;;;25.50;57.50;;;;;;5047787;28;20107;-67
2023/08/20 11:43:47;;;;;;;4.35;1.17;;;25.60;57.10;;;;;;5048075;28;20110;-68
2023/08/20 11:46:14;;;;;;;3.08;0.70;;;25.80;55.90;;;;;;5033940;28;20049;-67
2023/08/20 11:49:08;;;;;;;2.90;0.90;;;25.90;56.10;;;;;;5048231;28;20600;-67
2023/08/20 11:52:00;;;;;;;2.33;0.70;;;25.90;54.50;;;;;;5038281;28;20060;-67
2023/08/20 11:54:26;;;;;;;3.25;0.70;;;25.90;57.00;;;;;;5047208;28;20041;-67
2023/08/20 11:56:52;;;;;;;3.75;0.70;;;25.90;56.10;;;;;;5034602;28;20555;-66
2023/08/20 11:59:21;;;;;;;4.18;0.82;;;26.10;56.20;;;;;;5049272;28;20051;-66
2023/08/20 12:01:56;;;;;;;3.58;0.60;;;26.40;56.20;;;;;;5049203;28;20120;-67
2023/08/20 12:04:25;;;;;;;3.22;1.00;;;26.70;56.80;;;;;;5041001;28;20037;-66
2023/08/20 12:07:09;;;;;;;2.90;0.70;;;26.70;56.70;;;;;;5029873;28;20047;-67
2023/08/20 12:09:35;;;;;;;3.92;0.93;;;26.90;56.60;;;;;;5038336;28;20299;-67
2023/08/20 12:12:02;;;;;;;3.55;1.10;;;27.20;56.60;;;;;;5050062;28;20102;-67
2023/08/20 12:14:28;;;;;;;3.67;0.73;;;27.50;56.20;;;;;;5049005;28;20060;-67
2023/08/20 12:16:54;;;;;;;2.78;0.95;;;27.40;55.70;;;;;;5015360;28;20119;-67
2023/08/20 12:19:20;;;;;;;3.55;1.20;;;27.80;55.60;;;;;;5035990;28;20124;-67
2023/08/20 12:21:46;;;;;;;6.07;1.17;;;28.00;55.30;;;;;;5032452;28;20120;-67
2023/08/20 12:24:12;;;;;;;4.82;1.17;;;28.10;55.20;;;;;;5035785;28;20033;-66
2023/08/20 12:26:39;;;;;;;3.33;1.17;;;28.20;55.20;;;;;;5046179;28;20045;-66
2023/08/20 12:29:05;;;;;;;3.95;1.15;;;28.30;54.40;;;;;;5047197;28;20033;-67
2023/08/20 12:31:31;;;;;;;1.95;0.60;;;28.40;53.90;;;;;;5034762;28;20099;-67
2023/08/20 12:33:57;;;;;;;2.20;0.88;;;28.50;53.70;;;;;;5047537;28;20607;-67
2023/08/20 12:36:22;;;;;;;3.00;1.25;;;28.60;53.30;;;;;;5048801;28;20068;-67
2023/08/20 12:38:48;;;;;;;3.63;1.23;;;28.40;53.20;;;;;;5048794;28;20118;-67
2023/08/20 12:41:14;;;;;;;2.42;0.80;;;28.30;53.50;;;;;;5028246;28;20046;-67
2023/08/20 12:43:40;;;;;;;2.67;1.10;;;28.50;52.70;;;;;;5034222;28;20137;-66